sensor_id;sensor_type;location;lat;lon;timestamp;P1;durP1;ratioP1;P2;durP2;ratioP2
17570;SDS011;8903;52.220;20.978;2022-12-07T00:01:14;54.10;;;30.23;;
17570;SDS011;8903;52.220;20.978;2022-12-07T00:03:43;55.80;;;31.87;;
17570;SDS011;8903;52.220;20.978;2022-12-07T00:06:12;63.10;;;34.93;;
17570;SDS011;8903;52.220;20.978;2022-12-07T00:08:43;57.43;;;33.37;;
17570;SDS011;8903;52.220;20.978;2022-12-07T00:11:12;63.50;;;35.60;;
17570;SDS011;8903;52.220;20.978;2022-12-07T00:13:41;56.87;;;31.53;;
17570;SDS011;8903;52.220;20.978;2022-12-07T00:16:09;56.33;;;31.43;;
17570;SDS011;8903;52.220;20.978;2022-12-07T00:18:38;60.43;;;31.37;;
17570;SDS011;8903;52.220;20.978;2022-12-07T00:21:06;58.30;;;32.90;;
17570;SDS011;8903;52.220;20.978;2022-12-07T00:23:36;59.20;;;33.37;;
17570;SDS011;8903;52.220;20.978;2022-12-07T00:26:04;66.60;;;37.10;;
17570;SDS011;8903;52.220;20.978;2022-12-07T00:28:33;68.90;;;38.47;;
17570;SDS011;8903;52.220;20.978;2022-12-07T00:31:01;67.80;;;37.20;;
17570;SDS011;8903;52.220;20.978;2022-12-07T00:33:34;68.13;;;38.00;;
17570;SDS011;8903;52.220;20.978;2022-12-07T00:36:03;59.53;;;35.90;;
17570;SDS011;8903;52.220;20.978;2022-12-07T00:38:34;71.43;;;40.37;;
17570;SDS011;8903;52.220;20.978;2022-12-07T00:41:03;82.47;;;42.20;;
17570;SDS011;8903;52.220;20.978;2022-12-07T00:43:32;79.97;;;43.27;;
17570;SDS011;8903;52.220;20.978;2022-12-07T00:45:59;86.23;;;44.63;;
17570;SDS011;8903;52.220;20.978;2022-12-07T00:48:26;95.73;;;45.37;;
17570;SDS011;8903;52.220;20.978;2022-12-07T00:50:53;90.30;;;47.70;;
17570;SDS011;8903;52.220;20.978;2022-12-07T00:53:21;99.83;;;49.40;;
17570;SDS011;8903;52.220;20.978;2022-12-07T00:55:48;82.87;;;46.43;;
17570;SDS011;8903;52.220;20.978;2022-12-07T00:58:14;98.80;;;52.20;;
17570;SDS011;8903;52.220;20.978;2022-12-07T01:00:43;89.73;;;46.70;;
17570;SDS011;8903;52.220;20.978;2022-12-07T01:03:11;98.90;;;50.83;;
17570;SDS011;8903;52.220;20.978;2022-12-07T01:05:40;85.10;;;46.70;;
17570;SDS011;8903;52.220;20.978;2022-12-07T01:08:14;100.53;;;50.77;;
17570;SDS011;8903;52.220;20.978;2022-12-07T01:10:41;93.70;;;48.10;;
17570;SDS011;8903;52.220;20.978;2022-12-07T01:13:08;90.60;;;49.57;;
17570;SDS011;8903;52.220;20.978;2022-12-07T01:15:38;107.93;;;49.90;;
17570;SDS011;8903;52.220;20.978;2022-12-07T01:18:06;93.57;;;50.17;;
17570;SDS011;8903;52.220;20.978;2022-12-07T01:20:34;92.73;;;45.27;;
17570;SDS011;8903;52.220;20.978;2022-12-07T01:23:02;94.17;;;48.17;;
17570;SDS011;8903;52.220;20.978;2022-12-07T01:25:29;78.73;;;44.50;;
17570;SDS011;8903;52.220;20.978;2022-12-07T01:27:56;86.40;;;43.20;;
17570;SDS011;8903;52.220;20.978;2022-12-07T01:30:23;70.13;;;39.70;;
17570;SDS011;8903;52.220;20.978;2022-12-07T01:32:50;68.83;;;39.13;;
17570;SDS011;8903;52.220;20.978;2022-12-07T01:35:18;79.67;;;41.70;;
17570;SDS011;8903;52.220;20.978;2022-12-07T01:37:45;91.27;;;44.83;;
17570;SDS011;8903;52.220;20.978;2022-12-07T01:40:12;72.63;;;40.00;;
17570;SDS011;8903;52.220;20.978;2022-12-07T01:42:39;66.07;;;35.40;;
17570;SDS011;8903;52.220;20.978;2022-12-07T01:48:03;56.57;;;32.07;;
17570;SDS011;8903;52.220;20.978;2022-12-07T01:50:33;47.57;;;29.80;;
17570;SDS011;8903;52.220;20.978;2022-12-07T01:53:01;52.07;;;30.53;;
17570;SDS011;8903;52.220;20.978;2022-12-07T01:55:31;45.50;;;27.87;;
17570;SDS011;8903;52.220;20.978;2022-12-07T01:57:59;47.90;;;28.50;;
17570;SDS011;8903;52.220;20.978;2022-12-07T02:00:26;50.23;;;27.57;;
17570;SDS011;8903;52.220;20.978;2022-12-07T02:02:54;47.87;;;27.37;;
17570;SDS011;8903;52.220;20.978;2022-12-07T02:05:23;40.77;;;24.73;;
17570;SDS011;8903;52.220;20.978;2022-12-07T02:07:54;38.47;;;23.67;;
17570;SDS011;8903;52.220;20.978;2022-12-07T02:10:24;43.27;;;22.50;;
17570;SDS011;8903;52.220;20.978;2022-12-07T02:12:52;31.97;;;19.63;;
17570;SDS011;8903;52.220;20.978;2022-12-07T02:15:22;36.40;;;20.00;;
17570;SDS011;8903;52.220;20.978;2022-12-07T02:17:56;33.63;;;19.67;;
17570;SDS011;8903;52.220;20.978;2022-12-07T02:20:33;31.13;;;20.43;;
17570;SDS011;8903;52.220;20.978;2022-12-07T02:26:22;26.43;;;17.30;;
17570;SDS011;8903;52.220;20.978;2022-12-07T02:29:18;28.13;;;17.50;;
17570;SDS011;8903;52.220;20.978;2022-12-07T02:31:51;30.33;;;18.10;;
17570;SDS011;8903;52.220;20.978;2022-12-07T02:34:28;29.77;;;18.57;;
17570;SDS011;8903;52.220;20.978;2022-12-07T02:37:02;25.27;;;16.77;;
17570;SDS011;8903;52.220;20.978;2022-12-07T02:39:37;25.40;;;17.20;;
17570;SDS011;8903;52.220;20.978;2022-12-07T02:42:09;29.17;;;17.70;;
17570;SDS011;8903;52.220;20.978;2022-12-07T02:44:43;28.27;;;17.80;;
17570;SDS011;8903;52.220;20.978;2022-12-07T02:47:12;31.20;;;18.27;;
17570;SDS011;8903;52.220;20.978;2022-12-07T02:49:42;27.47;;;18.03;;
17570;SDS011;8903;52.220;20.978;2022-12-07T02:52:09;31.13;;;19.33;;
17570;SDS011;8903;52.220;20.978;2022-12-07T02:54:36;30.57;;;19.33;;
17570;SDS011;8903;52.220;20.978;2022-12-07T02:57:06;23.93;;;17.40;;
17570;SDS011;8903;52.220;20.978;2022-12-07T02:59:45;36.97;;;17.37;;
17570;SDS011;8903;52.220;20.978;2022-12-07T03:02:25;35.83;;;19.17;;
17570;SDS011;8903;52.220;20.978;2022-12-07T03:04:59;28.90;;;17.50;;
17570;SDS011;8903;52.220;20.978;2022-12-07T03:07:37;32.40;;;20.40;;
17570;SDS011;8903;52.220;20.978;2022-12-07T03:10:14;36.87;;;18.10;;
17570;SDS011;8903;52.220;20.978;2022-12-07T03:12:51;36.27;;;20.87;;
17570;SDS011;8903;52.220;20.978;2022-12-07T03:15:27;32.90;;;20.00;;
17570;SDS011;8903;52.220;20.978;2022-12-07T03:18:00;33.83;;;20.87;;
17570;SDS011;8903;52.220;20.978;2022-12-07T03:20:29;28.97;;;19.63;;
17570;SDS011;8903;52.220;20.978;2022-12-07T03:22:57;32.77;;;20.20;;
17570;SDS011;8903;52.220;20.978;2022-12-07T03:25:25;36.70;;;19.13;;
17570;SDS011;8903;52.220;20.978;2022-12-07T03:27:54;42.17;;;20.67;;
17570;SDS011;8903;52.220;20.978;2022-12-07T03:30:24;32.50;;;19.03;;
17570;SDS011;8903;52.220;20.978;2022-12-07T03:32:58;28.40;;;17.60;;
17570;SDS011;8903;52.220;20.978;2022-12-07T03:35:31;26.10;;;17.17;;
17570;SDS011;8903;52.220;20.978;2022-12-07T03:38:02;26.43;;;15.10;;
17570;SDS011;8903;52.220;20.978;2022-12-07T03:40:40;22.10;;;14.23;;
17570;SDS011;8903;52.220;20.978;2022-12-07T03:43:11;19.90;;;12.47;;
17570;SDS011;8903;52.220;20.978;2022-12-07T03:45:40;22.60;;;14.97;;
17570;SDS011;8903;52.220;20.978;2022-12-07T03:48:10;18.90;;;13.33;;
17570;SDS011;8903;52.220;20.978;2022-12-07T03:50:48;19.20;;;11.80;;
17570;SDS011;8903;52.220;20.978;2022-12-07T03:53:19;23.43;;;12.80;;
17570;SDS011;8903;52.220;20.978;2022-12-07T03:55:51;16.37;;;11.90;;
17570;SDS011;8903;52.220;20.978;2022-12-07T03:58:20;19.33;;;12.27;;
17570;SDS011;8903;52.220;20.978;2022-12-07T04:00:50;16.60;;;12.53;;
17570;SDS011;8903;52.220;20.978;2022-12-07T04:03:18;16.93;;;12.00;;
17570;SDS011;8903;52.220;20.978;2022-12-07T04:05:45;17.10;;;12.20;;
17570;SDS011;8903;52.220;20.978;2022-12-07T04:08:12;16.63;;;12.30;;
17570;SDS011;8903;52.220;20.978;2022-12-07T04:10:39;19.20;;;11.90;;
17570;SDS011;8903;52.220;20.978;2022-12-07T04:13:06;18.17;;;12.40;;
17570;SDS011;8903;52.220;20.978;2022-12-07T04:15:33;19.80;;;12.37;;
17570;SDS011;8903;52.220;20.978;2022-12-07T04:18:01;19.47;;;11.73;;
17570;SDS011;8903;52.220;20.978;2022-12-07T04:20:28;16.83;;;11.40;;
17570;SDS011;8903;52.220;20.978;2022-12-07T04:22:55;18.63;;;11.87;;
17570;SDS011;8903;52.220;20.978;2022-12-07T04:25:22;18.30;;;12.20;;
17570;SDS011;8903;52.220;20.978;2022-12-07T04:27:49;21.37;;;14.03;;
17570;SDS011;8903;52.220;20.978;2022-12-07T04:30:16;21.90;;;12.80;;
17570;SDS011;8903;52.220;20.978;2022-12-07T04:32:43;23.20;;;13.77;;
17570;SDS011;8903;52.220;20.978;2022-12-07T04:35:11;22.33;;;13.27;;
17570;SDS011;8903;52.220;20.978;2022-12-07T04:37:38;17.80;;;13.63;;
17570;SDS011;8903;52.220;20.978;2022-12-07T04:40:07;19.03;;;13.30;;
17570;SDS011;8903;52.220;20.978;2022-12-07T04:42:36;22.70;;;13.80;;
17570;SDS011;8903;52.220;20.978;2022-12-07T04:45:03;19.93;;;13.70;;
17570;SDS011;8903;52.220;20.978;2022-12-07T04:47:31;22.47;;;14.33;;
17570;SDS011;8903;52.220;20.978;2022-12-07T04:49:58;24.07;;;15.87;;
17570;SDS011;8903;52.220;20.978;2022-12-07T04:52:26;22.13;;;14.60;;
17570;SDS011;8903;52.220;20.978;2022-12-07T04:54:53;27.27;;;16.13;;
17570;SDS011;8903;52.220;20.978;2022-12-07T04:57:20;24.67;;;16.27;;
17570;SDS011;8903;52.220;20.978;2022-12-07T04:59:47;27.10;;;15.80;;
17570;SDS011;8903;52.220;20.978;2022-12-07T05:02:14;25.97;;;17.23;;
17570;SDS011;8903;52.220;20.978;2022-12-07T05:04:41;30.17;;;18.17;;
17570;SDS011;8903;52.220;20.978;2022-12-07T05:07:07;30.60;;;19.07;;
17570;SDS011;8903;52.220;20.978;2022-12-07T05:09:36;30.50;;;18.97;;
17570;SDS011;8903;52.220;20.978;2022-12-07T05:12:03;32.90;;;17.93;;
17570;SDS011;8903;52.220;20.978;2022-12-07T05:14:30;32.87;;;18.73;;
17570;SDS011;8903;52.220;20.978;2022-12-07T05:16:56;38.10;;;21.70;;
17570;SDS011;8903;52.220;20.978;2022-12-07T05:19:23;36.77;;;21.07;;
17570;SDS011;8903;52.220;20.978;2022-12-07T05:21:51;33.47;;;21.67;;
17570;SDS011;8903;52.220;20.978;2022-12-07T05:24:18;41.20;;;23.77;;
17570;SDS011;8903;52.220;20.978;2022-12-07T05:26:46;34.90;;;20.00;;
17570;SDS011;8903;52.220;20.978;2022-12-07T05:29:14;33.03;;;21.50;;
17570;SDS011;8903;52.220;20.978;2022-12-07T05:31:42;34.73;;;20.50;;
17570;SDS011;8903;52.220;20.978;2022-12-07T05:34:10;33.43;;;19.13;;
17570;SDS011;8903;52.220;20.978;2022-12-07T05:36:37;30.80;;;17.90;;
17570;SDS011;8903;52.220;20.978;2022-12-07T05:39:04;29.10;;;16.03;;
17570;SDS011;8903;52.220;20.978;2022-12-07T05:41:32;26.53;;;17.50;;
17570;SDS011;8903;52.220;20.978;2022-12-07T05:44:18;25.23;;;15.60;;
17570;SDS011;8903;52.220;20.978;2022-12-07T05:46:45;31.10;;;17.73;;
17570;SDS011;8903;52.220;20.978;2022-12-07T05:49:12;26.33;;;16.40;;
17570;SDS011;8903;52.220;20.978;2022-12-07T05:51:39;30.67;;;18.07;;
17570;SDS011;8903;52.220;20.978;2022-12-07T05:54:06;33.00;;;18.00;;
17570;SDS011;8903;52.220;20.978;2022-12-07T05:56:33;30.43;;;19.90;;
17570;SDS011;8903;52.220;20.978;2022-12-07T05:59:00;35.47;;;20.57;;
17570;SDS011;8903;52.220;20.978;2022-12-07T06:01:46;34.83;;;18.77;;
17570;SDS011;8903;52.220;20.978;2022-12-07T06:04:13;33.67;;;21.23;;
17570;SDS011;8903;52.220;20.978;2022-12-07T06:06:40;33.50;;;20.30;;
17570;SDS011;8903;52.220;20.978;2022-12-07T06:09:07;32.13;;;18.37;;
17570;SDS011;8903;52.220;20.978;2022-12-07T06:11:34;32.40;;;18.53;;
17570;SDS011;8903;52.220;20.978;2022-12-07T06:14:19;29.77;;;18.83;;
17570;SDS011;8903;52.220;20.978;2022-12-07T06:16:47;30.50;;;19.33;;
17570;SDS011;8903;52.220;20.978;2022-12-07T06:19:14;36.57;;;20.73;;
17570;SDS011;8903;52.220;20.978;2022-12-07T06:21:41;32.30;;;18.87;;
17570;SDS011;8903;52.220;20.978;2022-12-07T06:24:08;31.67;;;18.27;;
17570;SDS011;8903;52.220;20.978;2022-12-07T06:26:37;31.87;;;18.50;;
17570;SDS011;8903;52.220;20.978;2022-12-07T06:29:04;37.43;;;19.67;;
17570;SDS011;8903;52.220;20.978;2022-12-07T06:31:31;28.37;;;20.50;;
17570;SDS011;8903;52.220;20.978;2022-12-07T06:34:00;40.43;;;20.27;;
17570;SDS011;8903;52.220;20.978;2022-12-07T06:36:27;30.27;;;18.33;;
17570;SDS011;8903;52.220;20.978;2022-12-07T06:38:54;35.23;;;19.23;;
17570;SDS011;8903;52.220;20.978;2022-12-07T06:41:21;34.03;;;16.70;;
17570;SDS011;8903;52.220;20.978;2022-12-07T06:43:49;36.30;;;17.10;;
17570;SDS011;8903;52.220;20.978;2022-12-07T06:46:16;28.70;;;16.87;;
17570;SDS011;8903;52.220;20.978;2022-12-07T06:48:43;25.00;;;15.60;;
17570;SDS011;8903;52.220;20.978;2022-12-07T06:51:12;30.30;;;16.87;;
17570;SDS011;8903;52.220;20.978;2022-12-07T06:53:39;24.53;;;16.57;;
17570;SDS011;8903;52.220;20.978;2022-12-07T06:56:06;27.40;;;16.57;;
17570;SDS011;8903;52.220;20.978;2022-12-07T06:58:33;34.00;;;18.10;;
17570;SDS011;8903;52.220;20.978;2022-12-07T07:01:00;30.20;;;16.90;;
17570;SDS011;8903;52.220;20.978;2022-12-07T07:03:28;31.73;;;16.93;;
17570;SDS011;8903;52.220;20.978;2022-12-07T07:05:55;27.97;;;16.90;;
17570;SDS011;8903;52.220;20.978;2022-12-07T07:08:23;28.70;;;18.00;;
17570;SDS011;8903;52.220;20.978;2022-12-07T07:10:50;32.13;;;19.90;;
17570;SDS011;8903;52.220;20.978;2022-12-07T07:13:17;37.73;;;19.80;;
17570;SDS011;8903;52.220;20.978;2022-12-07T07:15:44;31.57;;;19.93;;
17570;SDS011;8903;52.220;20.978;2022-12-07T07:18:11;44.53;;;19.07;;
17570;SDS011;8903;52.220;20.978;2022-12-07T07:20:38;35.23;;;20.37;;
17570;SDS011;8903;52.220;20.978;2022-12-07T07:23:05;30.77;;;18.70;;
17570;SDS011;8903;52.220;20.978;2022-12-07T07:25:34;32.20;;;19.50;;
17570;SDS011;8903;52.220;20.978;2022-12-07T07:28:01;37.97;;;20.03;;
17570;SDS011;8903;52.220;20.978;2022-12-07T07:30:28;27.70;;;18.10;;
17570;SDS011;8903;52.220;20.978;2022-12-07T07:32:56;36.70;;;19.27;;
17570;SDS011;8903;52.220;20.978;2022-12-07T07:35:23;26.10;;;16.30;;
17570;SDS011;8903;52.220;20.978;2022-12-07T07:37:50;33.07;;;16.27;;
17570;SDS011;8903;52.220;20.978;2022-12-07T07:40:20;29.70;;;15.57;;
17570;SDS011;8903;52.220;20.978;2022-12-07T07:42:48;27.00;;;16.60;;
17570;SDS011;8903;52.220;20.978;2022-12-07T07:45:16;25.93;;;16.00;;
17570;SDS011;8903;52.220;20.978;2022-12-07T07:47:44;25.93;;;14.30;;
17570;SDS011;8903;52.220;20.978;2022-12-07T07:50:11;22.90;;;14.20;;
17570;SDS011;8903;52.220;20.978;2022-12-07T07:52:38;28.77;;;16.10;;
17570;SDS011;8903;52.220;20.978;2022-12-07T07:55:06;22.73;;;13.50;;
17570;SDS011;8903;52.220;20.978;2022-12-07T07:57:33;25.43;;;13.30;;
17570;SDS011;8903;52.220;20.978;2022-12-07T08:00:03;23.50;;;13.03;;
17570;SDS011;8903;52.220;20.978;2022-12-07T08:02:37;22.77;;;14.77;;
17570;SDS011;8903;52.220;20.978;2022-12-07T08:05:05;26.40;;;14.80;;
17570;SDS011;8903;52.220;20.978;2022-12-07T08:07:33;32.40;;;14.87;;
17570;SDS011;8903;52.220;20.978;2022-12-07T08:10:00;31.20;;;15.10;;
17570;SDS011;8903;52.220;20.978;2022-12-07T08:12:28;26.33;;;15.40;;
17570;SDS011;8903;52.220;20.978;2022-12-07T08:14:55;25.90;;;15.37;;
17570;SDS011;8903;52.220;20.978;2022-12-07T08:17:23;29.23;;;15.80;;
17570;SDS011;8903;52.220;20.978;2022-12-07T08:19:50;34.03;;;17.80;;
17570;SDS011;8903;52.220;20.978;2022-12-07T08:22:17;28.33;;;15.83;;
17570;SDS011;8903;52.220;20.978;2022-12-07T08:24:45;33.87;;;18.57;;
17570;SDS011;8903;52.220;20.978;2022-12-07T08:27:11;29.17;;;16.63;;
17570;SDS011;8903;52.220;20.978;2022-12-07T08:29:38;38.77;;;16.50;;
17570;SDS011;8903;52.220;20.978;2022-12-07T08:32:05;47.83;;;18.03;;
17570;SDS011;8903;52.220;20.978;2022-12-07T08:34:34;34.00;;;18.63;;
17570;SDS011;8903;52.220;20.978;2022-12-07T08:37:00;45.40;;;20.80;;
17570;SDS011;8903;52.220;20.978;2022-12-07T08:39:27;41.73;;;20.57;;
17570;SDS011;8903;52.220;20.978;2022-12-07T08:41:54;37.67;;;19.17;;
17570;SDS011;8903;52.220;20.978;2022-12-07T08:44:21;48.53;;;21.97;;
17570;SDS011;8903;52.220;20.978;2022-12-07T08:46:49;45.80;;;22.50;;
17570;SDS011;8903;52.220;20.978;2022-12-07T08:49:20;55.47;;;22.50;;
17570;SDS011;8903;52.220;20.978;2022-12-07T08:51:51;57.30;;;24.60;;
17570;SDS011;8903;52.220;20.978;2022-12-07T08:54:18;54.43;;;23.87;;
17570;SDS011;8903;52.220;20.978;2022-12-07T08:56:46;50.27;;;24.37;;
17570;SDS011;8903;52.220;20.978;2022-12-07T08:59:16;42.20;;;22.20;;
17570;SDS011;8903;52.220;20.978;2022-12-07T09:01:45;50.33;;;23.23;;
17570;SDS011;8903;52.220;20.978;2022-12-07T09:04:12;50.77;;;22.90;;
17570;SDS011;8903;52.220;20.978;2022-12-07T09:06:39;47.00;;;24.50;;
17570;SDS011;8903;52.220;20.978;2022-12-07T09:09:08;47.70;;;24.20;;
17570;SDS011;8903;52.220;20.978;2022-12-07T09:11:37;47.57;;;22.80;;
17570;SDS011;8903;52.220;20.978;2022-12-07T09:14:04;48.37;;;23.00;;
17570;SDS011;8903;52.220;20.978;2022-12-07T09:16:32;57.90;;;23.67;;
17570;SDS011;8903;52.220;20.978;2022-12-07T09:18:59;49.27;;;25.43;;
17570;SDS011;8903;52.220;20.978;2022-12-07T09:21:26;48.23;;;23.57;;
17570;SDS011;8903;52.220;20.978;2022-12-07T09:23:53;66.77;;;25.80;;
17570;SDS011;8903;52.220;20.978;2022-12-07T09:26:21;59.03;;;25.30;;
17570;SDS011;8903;52.220;20.978;2022-12-07T09:28:49;51.57;;;23.70;;
17570;SDS011;8903;52.220;20.978;2022-12-07T09:31:16;69.30;;;27.20;;
17570;SDS011;8903;52.220;20.978;2022-12-07T09:33:42;61.03;;;25.67;;
17570;SDS011;8903;52.220;20.978;2022-12-07T09:36:10;57.53;;;25.30;;
17570;SDS011;8903;52.220;20.978;2022-12-07T09:38:37;55.80;;;24.50;;
17570;SDS011;8903;52.220;20.978;2022-12-07T09:41:04;57.87;;;25.70;;
17570;SDS011;8903;52.220;20.978;2022-12-07T09:43:33;61.30;;;23.80;;
17570;SDS011;8903;52.220;20.978;2022-12-07T09:46:02;56.00;;;22.70;;
17570;SDS011;8903;52.220;20.978;2022-12-07T09:48:30;49.10;;;24.20;;
17570;SDS011;8903;52.220;20.978;2022-12-07T09:51:02;67.30;;;26.30;;
17570;SDS011;8903;52.220;20.978;2022-12-07T09:53:39;61.57;;;25.37;;
17570;SDS011;8903;52.220;20.978;2022-12-07T09:56:08;64.07;;;26.13;;
17570;SDS011;8903;52.220;20.978;2022-12-07T09:58:40;58.40;;;24.00;;
17570;SDS011;8903;52.220;20.978;2022-12-07T10:01:09;44.03;;;23.40;;
17570;SDS011;8903;52.220;20.978;2022-12-07T10:03:48;50.53;;;21.27;;
17570;SDS011;8903;52.220;20.978;2022-12-07T10:06:17;53.20;;;22.00;;
17570;SDS011;8903;52.220;20.978;2022-12-07T10:08:44;52.20;;;23.23;;
17570;SDS011;8903;52.220;20.978;2022-12-07T10:11:11;54.73;;;22.70;;
17570;SDS011;8903;52.220;20.978;2022-12-07T10:13:42;44.70;;;21.87;;
17570;SDS011;8903;52.220;20.978;2022-12-07T10:16:25;46.93;;;22.10;;
17570;SDS011;8903;52.220;20.978;2022-12-07T10:18:59;47.47;;;23.13;;
17570;SDS011;8903;52.220;20.978;2022-12-07T10:21:58;47.93;;;22.70;;
17570;SDS011;8903;52.220;20.978;2022-12-07T10:24:30;46.90;;;22.13;;
17570;SDS011;8903;52.220;20.978;2022-12-07T10:26:58;48.90;;;20.30;;
17570;SDS011;8903;52.220;20.978;2022-12-07T10:29:29;54.17;;;23.30;;
17570;SDS011;8903;52.220;20.978;2022-12-07T10:31:58;53.07;;;20.97;;
17570;SDS011;8903;52.220;20.978;2022-12-07T10:34:26;40.00;;;20.63;;
17570;SDS011;8903;52.220;20.978;2022-12-07T10:37:06;42.63;;;20.93;;
17570;SDS011;8903;52.220;20.978;2022-12-07T10:39:41;42.47;;;21.97;;
17570;SDS011;8903;52.220;20.978;2022-12-07T10:42:15;39.03;;;19.87;;
17570;SDS011;8903;52.220;20.978;2022-12-07T10:44:45;42.83;;;20.63;;
17570;SDS011;8903;52.220;20.978;2022-12-07T10:47:21;43.17;;;22.10;;
17570;SDS011;8903;52.220;20.978;2022-12-07T10:53:18;35.03;;;18.80;;
17570;SDS011;8903;52.220;20.978;2022-12-07T11:02:18;38.00;;;19.83;;
17570;SDS011;8903;52.220;20.978;2022-12-07T11:04:59;34.53;;;19.10;;
17570;SDS011;8903;52.220;20.978;2022-12-07T11:07:36;39.37;;;19.97;;
17570;SDS011;8903;52.220;20.978;2022-12-07T11:10:13;41.90;;;20.40;;
17570;SDS011;8903;52.220;20.978;2022-12-07T11:12:54;38.63;;;20.00;;
17570;SDS011;8903;52.220;20.978;2022-12-07T11:15:42;34.00;;;19.53;;
17570;SDS011;8903;52.220;20.978;2022-12-07T11:18:24;67.33;;;24.40;;
17570;SDS011;8903;52.220;20.978;2022-12-07T11:20:58;35.33;;;18.90;;
17570;SDS011;8903;52.220;20.978;2022-12-07T11:23:36;154.53;;;33.03;;
17570;SDS011;8903;52.220;20.978;2022-12-07T11:26:13;44.20;;;21.67;;
17570;SDS011;8903;52.220;20.978;2022-12-07T11:28:56;36.60;;;21.27;;
17570;SDS011;8903;52.220;20.978;2022-12-07T11:31:44;48.53;;;22.30;;
17570;SDS011;8903;52.220;20.978;2022-12-07T11:34:23;33.37;;;20.17;;
17570;SDS011;8903;52.220;20.978;2022-12-07T11:36:58;28.53;;;17.23;;
17570;SDS011;8903;52.220;20.978;2022-12-07T11:39:33;29.77;;;17.90;;
17570;SDS011;8903;52.220;20.978;2022-12-07T11:42:04;37.23;;;19.03;;
17570;SDS011;8903;52.220;20.978;2022-12-07T11:44:44;31.10;;;18.20;;
17570;SDS011;8903;52.220;20.978;2022-12-07T11:47:19;29.33;;;18.63;;
17570;SDS011;8903;52.220;20.978;2022-12-07T11:49:54;29.50;;;18.00;;
17570;SDS011;8903;52.220;20.978;2022-12-07T11:52:30;26.43;;;16.50;;
17570;SDS011;8903;52.220;20.978;2022-12-07T11:55:07;29.17;;;16.27;;
17570;SDS011;8903;52.220;20.978;2022-12-07T11:57:44;35.93;;;19.87;;
17570;SDS011;8903;52.220;20.978;2022-12-07T12:00:16;27.07;;;17.43;;
17570;SDS011;8903;52.220;20.978;2022-12-07T12:02:46;34.83;;;18.83;;
17570;SDS011;8903;52.220;20.978;2022-12-07T12:05:19;37.87;;;19.13;;
17570;SDS011;8903;52.220;20.978;2022-12-07T12:07:51;29.93;;;18.10;;
17570;SDS011;8903;52.220;20.978;2022-12-07T12:10:27;27.60;;;18.27;;
17570;SDS011;8903;52.220;20.978;2022-12-07T12:13:07;28.60;;;16.67;;
17570;SDS011;8903;52.220;20.978;2022-12-07T12:15:51;33.63;;;17.80;;
17570;SDS011;8903;52.220;20.978;2022-12-07T12:21:31;33.70;;;17.73;;
17570;SDS011;8903;52.220;20.978;2022-12-07T12:24:00;28.37;;;16.37;;
17570;SDS011;8903;52.220;20.978;2022-12-07T12:26:33;33.80;;;18.90;;
17570;SDS011;8903;52.220;20.978;2022-12-07T12:29:03;30.83;;;17.40;;
17570;SDS011;8903;52.220;20.978;2022-12-07T12:31:35;31.43;;;18.50;;
17570;SDS011;8903;52.220;20.978;2022-12-07T12:36:58;27.70;;;15.53;;
17570;SDS011;8903;52.220;20.978;2022-12-07T12:39:25;36.97;;;18.97;;
17570;SDS011;8903;52.220;20.978;2022-12-07T12:41:54;27.57;;;16.77;;
17570;SDS011;8903;52.220;20.978;2022-12-07T12:47:53;27.93;;;17.80;;
17570;SDS011;8903;52.220;20.978;2022-12-07T12:50:23;34.07;;;17.93;;
17570;SDS011;8903;52.220;20.978;2022-12-07T12:52:57;37.27;;;19.60;;
17570;SDS011;8903;52.220;20.978;2022-12-07T12:58:42;31.63;;;18.23;;
17570;SDS011;8903;52.220;20.978;2022-12-07T13:04:23;30.67;;;17.97;;
17570;SDS011;8903;52.220;20.978;2022-12-07T13:06:57;30.23;;;16.07;;
17570;SDS011;8903;52.220;20.978;2022-12-07T13:09:26;30.60;;;17.80;;
17570;SDS011;8903;52.220;20.978;2022-12-07T13:11:58;28.20;;;17.80;;
17570;SDS011;8903;52.220;20.978;2022-12-07T13:23:11;25.10;;;16.10;;
17570;SDS011;8903;52.220;20.978;2022-12-07T13:25:45;27.87;;;17.50;;
17570;SDS011;8903;52.220;20.978;2022-12-07T13:28:21;27.97;;;16.57;;
17570;SDS011;8903;52.220;20.978;2022-12-07T13:33:50;27.80;;;17.07;;
17570;SDS011;8903;52.220;20.978;2022-12-07T13:36:20;25.57;;;17.20;;
17570;SDS011;8903;52.220;20.978;2022-12-07T13:38:58;24.87;;;16.73;;
17570;SDS011;8903;52.220;20.978;2022-12-07T13:41:41;26.00;;;16.77;;
17570;SDS011;8903;52.220;20.978;2022-12-07T13:44:09;29.53;;;17.10;;
17570;SDS011;8903;52.220;20.978;2022-12-07T13:46:44;26.43;;;16.73;;
17570;SDS011;8903;52.220;20.978;2022-12-07T13:49:19;23.20;;;16.33;;
17570;SDS011;8903;52.220;20.978;2022-12-07T13:51:48;26.07;;;17.10;;
17570;SDS011;8903;52.220;20.978;2022-12-07T13:54:15;26.00;;;16.97;;
17570;SDS011;8903;52.220;20.978;2022-12-07T13:56:49;33.70;;;17.40;;
17570;SDS011;8903;52.220;20.978;2022-12-07T13:59:18;28.60;;;17.90;;
17570;SDS011;8903;52.220;20.978;2022-12-07T14:01:49;26.60;;;16.70;;
17570;SDS011;8903;52.220;20.978;2022-12-07T14:04:26;28.77;;;17.20;;
17570;SDS011;8903;52.220;20.978;2022-12-07T14:06:58;29.90;;;19.00;;
17570;SDS011;8903;52.220;20.978;2022-12-07T14:09:27;25.00;;;17.40;;
17570;SDS011;8903;52.220;20.978;2022-12-07T14:11:57;31.80;;;18.03;;
17570;SDS011;8903;52.220;20.978;2022-12-07T14:14:25;29.50;;;17.13;;
17570;SDS011;8903;52.220;20.978;2022-12-07T14:16:56;26.47;;;18.07;;
17570;SDS011;8903;52.220;20.978;2022-12-07T14:19:40;28.53;;;17.37;;
17570;SDS011;8903;52.220;20.978;2022-12-07T14:22:18;27.03;;;19.03;;
17570;SDS011;8903;52.220;20.978;2022-12-07T14:25:00;30.03;;;18.73;;
17570;SDS011;8903;52.220;20.978;2022-12-07T14:27:48;31.97;;;18.03;;
17570;SDS011;8903;52.220;20.978;2022-12-07T14:30:23;29.10;;;20.27;;
17570;SDS011;8903;52.220;20.978;2022-12-07T14:32:57;33.33;;;21.50;;
17570;SDS011;8903;52.220;20.978;2022-12-07T14:35:25;30.17;;;19.60;;
17570;SDS011;8903;52.220;20.978;2022-12-07T14:41:20;32.67;;;20.20;;
17570;SDS011;8903;52.220;20.978;2022-12-07T14:47:04;33.10;;;19.97;;
17570;SDS011;8903;52.220;20.978;2022-12-07T14:49:36;34.10;;;21.10;;
17570;SDS011;8903;52.220;20.978;2022-12-07T14:52:04;32.00;;;20.53;;
17570;SDS011;8903;52.220;20.978;2022-12-07T14:54:35;40.20;;;22.57;;
17570;SDS011;8903;52.220;20.978;2022-12-07T14:57:04;41.90;;;21.80;;
17570;SDS011;8903;52.220;20.978;2022-12-07T14:59:59;34.50;;;22.13;;
17570;SDS011;8903;52.220;20.978;2022-12-07T15:02:31;30.17;;;21.13;;
17570;SDS011;8903;52.220;20.978;2022-12-07T15:05:02;32.43;;;20.73;;
17570;SDS011;8903;52.220;20.978;2022-12-07T15:07:48;41.37;;;21.97;;
17570;SDS011;8903;52.220;20.978;2022-12-07T15:10:20;40.73;;;23.10;;
17570;SDS011;8903;52.220;20.978;2022-12-07T15:12:57;34.37;;;21.07;;
17570;SDS011;8903;52.220;20.978;2022-12-07T15:18:31;36.83;;;21.30;;
17570;SDS011;8903;52.220;20.978;2022-12-07T15:20:58;30.57;;;20.17;;
17570;SDS011;8903;52.220;20.978;2022-12-07T15:23:45;35.27;;;21.10;;
17570;SDS011;8903;52.220;20.978;2022-12-07T15:26:39;43.47;;;21.27;;
17570;SDS011;8903;52.220;20.978;2022-12-07T15:29:28;37.43;;;21.70;;
17570;SDS011;8903;52.220;20.978;2022-12-07T15:35:10;35.00;;;21.73;;
17570;SDS011;8903;52.220;20.978;2022-12-07T15:38:25;38.10;;;22.13;;